createdAt,value
2022-08-22T00:03:07.733Z,101238.31
2022-08-22T00:03:07.955Z,101219.69
2022-08-22T00:14:01.922Z,101239.53
2022-08-22T00:21:45.406Z,101230.53
2022-08-22T00:29:26.636Z,101229.63
2022-08-22T00:37:07.952Z,101230.53
2022-08-22T00:45:05.465Z,101237.75
2022-08-22T00:53:02.783Z,101221.56
2022-08-22T01:00:44.783Z,101235.03
2022-08-22T01:08:34.480Z,101232.34
2022-08-22T01:16:30.218Z,101239.53
2022-08-22T01:24:18.554Z,101253.00
2022-08-22T01:32:44.653Z,101259.31
2022-08-22T01:40:58.923Z,101262.00
2022-08-22T01:48:40.439Z,101268.28
2022-08-22T01:56:19.530Z,101270.03
2022-08-22T02:04:02.896Z,101256.56
2022-08-22T02:11:45.620Z,101261.03
2022-08-22T02:19:30.534Z,101251.19
2022-08-22T02:27:16.959Z,101259.25
2022-08-22T02:35:03.460Z,101253.84
2022-08-22T02:42:44.304Z,101265.53
2022-08-22T02:50:24.636Z,101251.13
2022-08-22T02:58:07.212Z,101256.50
2022-08-22T03:05:52.570Z,101265.47
2022-08-22T03:13:41.406Z,101252.00
2022-08-22T03:21:20.000Z,101249.31
2022-08-22T03:29:03.022Z,101238.53
2022-08-22T03:36:37.903Z,101253.78
2022-08-22T03:44:42.398Z,101245.66
2022-08-22T03:53:06.020Z,101248.41
2022-08-22T04:09:24.041Z,101258.19
2022-08-22T04:17:21.560Z,101264.47
2022-08-22T04:25:07.575Z,101261.78
2022-08-22T04:32:46.496Z,101277.03
2022-08-22T04:40:26.850Z,101287.81
2022-08-22T04:48:07.892Z,101286.91
2022-08-22T04:55:57.152Z,101301.28
2022-08-22T05:03:34.125Z,101309.41
2022-08-22T05:11:11.798Z,101307.63
2022-08-22T05:18:48.934Z,101317.56
2022-08-22T05:26:25.566Z,101314.88
2022-08-22T05:34:05.342Z,101330.09
2022-08-22T05:41:42.413Z,101324.78
2022-08-22T05:49:20.781Z,101323.91
2022-08-22T05:57:07.432Z,101329.34
2022-08-22T06:04:53.226Z,101343.75
2022-08-22T06:12:35.352Z,101340.19
2022-08-22T06:20:11.580Z,101343.78
2022-08-22T06:27:50.004Z,101342.03
2022-08-22T06:35:28.878Z,101344.75
2022-08-22T06:43:06.304Z,101343.81
2022-08-22T06:50:42.961Z,101347.38
2022-08-22T06:58:21.910Z,101358.16
2022-08-22T07:05:58.011Z,101358.13
2022-08-22T07:13:35.926Z,101359.91
2022-08-22T07:21:09.898Z,101358.09
2022-08-22T07:28:51.574Z,101370.59
2022-08-22T07:36:42.921Z,101373.25
2022-08-22T07:44:21.363Z,101371.31
2022-08-22T07:51:58.915Z,101385.59
2022-08-22T07:59:36.652Z,101375.56
2022-08-22T08:07:14.807Z,101386.19
2022-08-22T08:14:55.746Z,101379.63
2022-08-22T08:22:30.482Z,101375.72
2022-08-22T08:30:15.291Z,101373.53
2022-08-22T08:37:53.272Z,101379.53
2022-08-22T08:45:59.042Z,101367.31
2022-08-22T08:54:05.303Z,101361.53
2022-08-22T09:01:59.969Z,101354.00
2022-08-22T09:09:52.309Z,101354.47
2022-08-22T09:17:45.015Z,101361.09
2022-08-22T09:25:28.755Z,101360.44
2022-08-22T09:33:18.986Z,101360.69
2022-08-22T09:41:05.718Z,101367.16
2022-08-22T09:48:49.321Z,101363.94
2022-08-22T09:56:33.607Z,101358.16
2022-08-22T10:04:47.523Z,101358.16
2022-08-22T10:12:35.124Z,101355.97
2022-08-22T10:20:20.953Z,101373.78
2022-08-22T10:28:10.503Z,101358.38
2022-08-22T10:35:59.927Z,101366.41
2022-08-22T10:43:49.392Z,101362.06
2022-08-22T10:51:44.635Z,101350.78
2022-08-22T10:59:33.965Z,101354.25
2022-08-22T11:07:21.396Z,101355.44
2022-08-22T11:15:08.201Z,101354.47
2022-08-22T11:22:56.364Z,101354.38
2022-08-22T11:30:36.477Z,101358.28
2022-08-22T11:38:30.700Z,101345.88
2022-08-22T11:46:19.801Z,101343.03
2022-08-22T11:54:04.215Z,101346.44
2022-08-22T12:01:43.610Z,101342.56
2022-08-22T12:09:27.634Z,101342.25
2022-08-22T12:17:51.072Z,101330.50
2022-08-22T12:25:25.794Z,101330.31
2022-08-22T12:33:36.275Z,101328.28
2022-08-22T12:41:38.130Z,101315.31
2022-08-22T12:49:29.680Z,101303.56
2022-08-22T12:57:23.678Z,101298.91
2022-08-22T13:05:00.823Z,101302.22
2022-08-22T13:12:45.044Z,101298.72
2022-08-22T13:20:28.216Z,101294.34
2022-08-22T13:28:06.085Z,101295.53
2022-08-22T13:35:51.887Z,101294.75
2022-08-22T13:43:31.764Z,101297.41
2022-08-22T13:51:10.541Z,101289.13
2022-08-22T13:58:49.513Z,101289.47
2022-08-22T14:06:35.252Z,101290.13
2022-08-22T14:14:14.045Z,101284.06
2022-08-22T14:21:53.639Z,101274.78
2022-08-22T14:29:40.469Z,101272.78
2022-08-22T14:37:19.304Z,101282.13
2022-08-22T14:45:06.406Z,101272.47
2022-08-22T14:52:43.635Z,101279.03
2022-08-22T15:00:30.819Z,101273.06
2022-08-22T15:08:05.315Z,101289.72
2022-08-22T15:15:53.519Z,101283.25
2022-08-22T15:23:29.441Z,101280.34
2022-08-22T15:31:08.478Z,101287.50
2022-08-22T15:38:45.819Z,101286.41
2022-08-22T15:46:31.923Z,101277.16
2022-08-22T15:54:16.438Z,101282.13
2022-08-22T16:02:05.042Z,101275.97
2022-08-22T16:09:44.493Z,101277.97
2022-08-22T16:17:47.176Z,101271.91
2022-08-22T16:26:00.666Z,101274.81
2022-08-22T16:33:39.857Z,101279.50
2022-08-22T16:41:35.862Z,101271.63
2022-08-22T16:49:12.565Z,101286.44
2022-08-22T16:57:04.081Z,101292.16
2022-08-22T17:04:54.273Z,101287.13
2022-08-22T17:12:40.443Z,101278.25
2022-08-22T17:20:29.634Z,101283.81
2022-08-22T17:28:19.302Z,101288.59
2022-08-22T17:36:06.013Z,101296.06
2022-08-22T17:43:56.403Z,101295.31
2022-08-22T17:51:38.973Z,101312.00
2022-08-22T17:59:21.139Z,101320.44
2022-08-22T18:07:06.719Z,101318.97
2022-08-22T18:14:50.271Z,101332.88
2022-08-22T18:22:30.316Z,101330.53
2022-08-22T18:30:15.538Z,101338.88
2022-08-22T18:37:58.230Z,101348.06
2022-08-22T18:46:04.063Z,101344.63
2022-08-22T18:53:45.756Z,101351.06
2022-08-22T19:01:42.271Z,101355.72
2022-08-22T19:09:46.922Z,101355.88
2022-08-22T19:17:37.325Z,101363.28
2022-08-22T19:25:18.687Z,101369.94
2022-08-22T19:33:03.079Z,101372.81
2022-08-22T19:40:53.767Z,101372.00
2022-08-22T19:48:30.370Z,101373.09
2022-08-22T19:56:19.579Z,101364.19
2022-08-22T20:03:57.913Z,101369.75
2022-08-22T20:11:45.041Z,101383.28
2022-08-22T20:19:21.520Z,101383.38
2022-08-22T20:27:15.294Z,101382.63
2022-08-22T20:34:54.828Z,101386.38
2022-08-22T20:42:34.861Z,101383.75
2022-08-22T20:50:11.998Z,101384.66
2022-08-22T20:57:51.363Z,101380.22
2022-08-22T21:05:27.062Z,101385.75
2022-08-22T21:13:09.564Z,101376.72
2022-08-22T21:20:43.377Z,101377.63
2022-08-22T21:28:33.166Z,101397.50
2022-08-22T21:36:11.984Z,101402.06
2022-08-22T21:43:48.210Z,101400.22
2022-08-22T21:51:41.047Z,101403.03
2022-08-22T21:59:26.143Z,101415.75
2022-08-22T22:07:19.889Z,101399.50
2022-08-22T22:14:55.169Z,101396.84
2022-08-22T22:22:28.970Z,101403.25
2022-08-22T22:30:04.734Z,101386.22
2022-08-22T22:37:41.553Z,101387.19
2022-08-22T22:45:17.214Z,101385.34
2022-08-22T22:52:51.044Z,101381.69
2022-08-22T23:00:31.639Z,101381.69
2022-08-22T23:08:06.143Z,101383.56
2022-08-22T23:15:41.410Z,101381.81
2022-08-22T23:23:15.311Z,101394.41
2022-08-22T23:30:50.757Z,101381.91
2022-08-22T23:38:24.445Z,101384.63
2022-08-22T23:45:59.595Z,101381.91
2022-08-22T23:53:34.891Z,101380.13
